Time;durP1;ratioP1;P1;durP2;ratioP2;P2;SDS_P1;SDS_P2;PMS_P1;PMS_P2;Temp;Humidity;BMP_temperature;BMP_pressure;BME280_temperature;BME280_humidity;BME280_pressure;Samples;Min_cycle;Max_cycle;Signal;HPM_P1;HPM_P2
2023/09/28 00:01:45;;;;;;;0.00;0.00;;;;;;;;;;5010824;28;20124;-56
2023/09/28 00:04:11;;;;;;;0.00;0.00;;;;;;;;;;5016738;28;20503;-56
2023/09/28 00:06:37;;;;;;;0.00;0.00;;;;;;;;;;5017228;28;20041;-56
2023/09/28 00:09:03;;;;;;;0.00;0.00;;;;;;;;;;5012922;28;20044;-56
2023/09/28 00:11:29;;;;;;;0.00;0.00;;;;;;;;;;5012677;28;20437;-56
2023/09/28 00:13:55;;;;;;;0.00;0.00;;;;;;;;;;5011365;28;20264;-57
2023/09/28 00:16:21;;;;;;;0.00;0.00;;;;;;;;;;5013722;28;20556;-56
2023/09/28 00:18:47;;;;;;;0.00;0.00;;;;;;;;;;5014534;28;20044;-57
2023/09/28 00:21:13;;;;;;;0.00;0.00;;;;;;;;;;5020641;28;20034;-57
2023/09/28 00:23:39;;;;;;;0.00;0.00;;;;;;;;;;5012395;28;20041;-56
2023/09/28 00:26:07;;;;;;;0.00;0.00;;;;;;;;;;5011775;28;20033;-56
2023/09/28 00:28:33;;;;;;;0.00;0.00;;;;;;;;;;5012454;28;20686;-57
2023/09/28 00:31:01;;;;;;;0.00;0.00;;;;;;;;;;5001444;28;20041;-55
2023/09/28 00:33:27;;;;;;;0.00;0.00;;;;;;;;;;4998530;28;20037;-57
2023/09/28 00:35:53;;;;;;;0.00;0.00;;;;;;;;;;4993492;28;20048;-56
2023/09/28 00:38:22;;;;;;;0.00;0.00;;;;;;;;;;4985189;28;20049;-56
2023/09/28 00:40:48;;;;;;;0.00;0.00;;;;;;;;;;5012633;28;20037;-57
2023/09/28 00:43:14;;;;;;;0.00;0.00;;;;;;;;;;5022572;28;20033;-56
2023/09/28 00:45:40;;;;;;;0.00;0.00;;;;;;;;;;5004869;28;20112;-57
2023/09/28 00:48:09;;;;;;;0.00;0.00;;;;;;;;;;5000351;28;20370;-57
2023/09/28 00:50:35;;;;;;;0.00;0.00;;;;;;;;;;5004217;28;20769;-55
2023/09/28 00:53:04;;;;;;;0.00;0.00;;;;;;;;;;4995117;28;20034;-55
2023/09/28 00:55:30;;;;;;;0.00;0.00;;;;;;;;;;4988559;28;20132;-56
2023/09/28 00:58:05;;;;;;;0.00;0.00;;;;;;;;;;4994108;28;20033;-57
2023/09/28 01:00:34;;;;;;;0.00;0.00;;;;;;;;;;5000073;28;20046;-56
2023/09/28 01:03:02;;;;;;;0.00;0.00;;;;;;;;;;4992670;28;20515;-57
2023/09/28 01:05:33;;;;;;;0.00;0.00;;;;;;;;;;4997195;28;20092;-56
2023/09/28 01:08:12;;;;;;;0.00;0.00;;;;;;;;;;4993868;28;20046;-56
2023/09/28 01:10:40;;;;;;;0.00;0.00;;;;;;;;;;4992034;28;20045;-57
2023/09/28 01:13:12;;;;;;;0.00;0.00;;;;;;;;;;4991106;28;20119;-56
2023/09/28 01:15:39;;;;;;;0.00;0.00;;;;;;;;;;5000552;28;20102;-57
2023/09/28 01:18:06;;;;;;;0.00;0.00;;;;;;;;;;4991495;28;20449;-57
2023/09/28 01:20:36;;;;;;;0.00;0.00;;;;;;;;;;4990442;28;20038;-56
2023/09/28 01:23:03;;;;;;;0.00;0.00;;;;;;;;;;4998940;28;20119;-56
2023/09/28 01:25:29;;;;;;;0.00;0.00;;;;;;;;;;5001910;28;20381;-56
2023/09/28 01:27:55;;;;;;;0.00;0.00;;;;;;;;;;4992197;28;20042;-56
2023/09/28 01:30:22;;;;;;;0.00;0.00;;;;;;;;;;5013295;28;20044;-56
2023/09/28 01:32:48;;;;;;;0.00;0.00;;;;;;;;;;5011580;28;20151;-56
2023/09/28 01:35:14;;;;;;;0.00;0.00;;;;;;;;;;5013448;28;20038;-56
2023/09/28 01:37:43;;;;;;;0.00;0.00;;;;;;;;;;5013217;28;20385;-57
2023/09/28 01:40:10;;;;;;;0.00;0.00;;;;;;;;;;5013111;28;20029;-55
2023/09/28 01:42:36;;;;;;;0.00;0.00;;;;;;;;;;4993432;28;20912;-56
2023/09/28 01:45:03;;;;;;;0.00;0.00;;;;;;;;;;5001515;28;20132;-57
2023/09/28 01:47:29;;;;;;;0.00;0.00;;;;;;;;;;5013881;28;20592;-56
2023/09/28 01:49:55;;;;;;;0.00;0.00;;;;;;;;;;4992158;28;20033;-56
2023/09/28 01:52:21;;;;;;;0.00;0.00;;;;;;;;;;5004703;28;20083;-56
2023/09/28 01:54:47;;;;;;;0.00;0.00;;;;;;;;;;5016153;28;20123;-56
2023/09/28 01:57:13;;;;;;;0.00;0.00;;;;;;;;;;5020371;28;20088;-57
2023/09/28 01:59:39;;;;;;;0.00;0.00;;;;;;;;;;5014989;28;20337;-55
2023/09/28 02:02:05;;;;;;;0.00;0.00;;;;;;;;;;5019416;28;20051;-57
2023/09/28 02:04:31;;;;;;;0.00;0.00;;;;;;;;;;5019309;28;20042;-56
2023/09/28 02:06:57;;;;;;;0.00;0.00;;;;;;;;;;5014736;28;20144;-57
2023/09/28 02:09:25;;;;;;;0.00;0.00;;;;;;;;;;5015816;28;20085;-56
2023/09/28 02:11:51;;;;;;;0.00;0.00;;;;;;;;;;5013540;28;20676;-55
2023/09/28 02:14:17;;;;;;;0.00;0.00;;;;;;;;;;5012410;28;20033;-57
2023/09/28 02:16:43;;;;;;;0.00;0.00;;;;;;;;;;5009943;28;20463;-56
2023/09/28 02:19:11;;;;;;;0.00;0.00;;;;;;;;;;5013646;28;20040;-55
2023/09/28 02:21:37;;;;;;;0.00;0.00;;;;;;;;;;5015383;28;20144;-56
2023/09/28 02:24:03;;;;;;;0.00;0.00;;;;;;;;;;5016265;28;20041;-57
2023/09/28 02:26:29;;;;;;;0.00;0.00;;;;;;;;;;5013962;28;20345;-57
2023/09/28 02:28:57;;;;;;;0.00;0.00;;;;;;;;;;5015715;28;20041;-56
2023/09/28 02:31:23;;;;;;;0.00;0.00;;;;;;;;;;5015776;28;20049;-56
2023/09/28 02:33:49;;;;;;;0.00;0.00;;;;;;;;;;5015529;28;20044;-56
2023/09/28 02:36:16;;;;;;;0.00;0.00;;;;;;;;;;5012870;28;20060;-55
2023/09/28 02:38:43;;;;;;;0.00;0.00;;;;;;;;;;5025670;28;21065;-57
2023/09/28 02:41:19;;;;;;;0.00;0.00;;;;;;;;;;5035716;28;20120;-56
2023/09/28 02:43:45;;;;;;;0.00;0.00;;;;;;;;;;5014327;28;20041;-56
2023/09/28 02:46:11;;;;;;;0.00;0.00;;;;;;;;;;5015303;28;20037;-56
2023/09/28 02:48:37;;;;;;;0.00;0.00;;;;;;;;;;5013901;28;20532;-56
2023/09/28 02:51:04;;;;;;;0.00;0.00;;;;;;;;;;5019688;28;20037;-56
2023/09/28 02:53:30;;;;;;;0.00;0.00;;;;;;;;;;5020225;28;20042;-57
2023/09/28 02:55:57;;;;;;;0.00;0.00;;;;;;;;;;5014524;28;20710;-58
2023/09/28 02:58:24;;;;;;;0.00;0.00;;;;;;;;;;5009928;28;20106;-55
2023/09/28 03:00:51;;;;;;;0.00;0.00;;;;;;;;;;5021373;28;20120;-57
2023/09/28 03:03:17;;;;;;;0.00;0.00;;;;;;;;;;5005571;28;20478;-56
2023/09/28 03:05:43;;;;;;;0.00;0.00;;;;;;;;;;5013263;28;20124;-56
2023/09/28 03:08:09;;;;;;;0.00;0.00;;;;;;;;;;4997827;28;20122;-58
2023/09/28 03:10:39;;;;;;;0.00;0.00;;;;;;;;;;4995791;28;20037;-55
2023/09/28 03:13:05;;;;;;;0.00;0.00;;;;;;;;;;5011044;28;20033;-58
2023/09/28 03:15:32;;;;;;;0.00;0.00;;;;;;;;;;5029044;28;20493;-57
2023/09/28 03:17:58;;;;;;;0.00;0.00;;;;;;;;;;5026858;28;20507;-56
2023/09/28 03:20:25;;;;;;;0.00;0.00;;;;;;;;;;5028335;28;20536;-56
2023/09/28 03:22:52;;;;;;;0.00;0.00;;;;;;;;;;5005761;28;20037;-56
2023/09/28 03:25:20;;;;;;;0.00;0.00;;;;;;;;;;4998942;28;20573;-56
2023/09/28 03:27:48;;;;;;;0.00;0.00;;;;;;;;;;4989266;28;20026;-61
2023/09/28 03:30:15;;;;;;;0.00;0.00;;;;;;;;;;4990550;28;20065;-56
2023/09/28 03:32:42;;;;;;;0.00;0.00;;;;;;;;;;4997263;28;20069;-56
2023/09/28 03:35:09;;;;;;;0.00;0.00;;;;;;;;;;4995250;28;20516;-56
2023/09/28 03:37:35;;;;;;;0.00;0.00;;;;;;;;;;4997693;28;20073;-57
2023/09/28 03:40:01;;;;;;;0.00;0.00;;;;;;;;;;4996769;28;20037;-57
2023/09/28 03:42:30;;;;;;;0.00;0.00;;;;;;;;;;5006754;28;21016;-55
2023/09/28 03:44:57;;;;;;;0.00;0.00;;;;;;;;;;5016688;28;20037;-57
2023/09/28 03:47:23;;;;;;;0.00;0.00;;;;;;;;;;5011471;28;20052;-57
2023/09/28 03:49:49;;;;;;;0.00;0.00;;;;;;;;;;5012641;28;20049;-57
2023/09/28 03:52:15;;;;;;;0.00;0.00;;;;;;;;;;5012463;28;20160;-57
2023/09/28 03:54:41;;;;;;;0.00;0.00;;;;;;;;;;4993847;28;20037;-55
2023/09/28 03:57:07;;;;;;;0.00;0.00;;;;;;;;;;4991870;28;20555;-55
2023/09/28 03:59:33;;;;;;;0.00;0.00;;;;;;;;;;4999235;28;20522;-57
2023/09/28 04:01:59;;;;;;;0.00;0.00;;;;;;;;;;4989514;28;20046;-57
2023/09/28 04:04:25;;;;;;;0.00;0.00;;;;;;;;;;5024632;28;20029;-56
2023/09/28 04:06:51;;;;;;;0.00;0.00;;;;;;;;;;5026839;28;20025;-56
2023/09/28 04:09:17;;;;;;;0.00;0.00;;;;;;;;;;5010075;28;20386;-57
2023/09/28 04:11:44;;;;;;;0.00;0.00;;;;;;;;;;5018902;28;20040;-56
2023/09/28 04:14:10;;;;;;;0.00;0.00;;;;;;;;;;5019113;28;20060;-55
2023/09/28 04:16:37;;;;;;;0.00;0.00;;;;;;;;;;5011781;28;20326;-56
2023/09/28 04:19:03;;;;;;;0.00;0.00;;;;;;;;;;5025873;28;20416;-56
2023/09/28 04:21:29;;;;;;;0.00;0.00;;;;;;;;;;5013667;28;20038;-56
2023/09/28 04:23:55;;;;;;;0.00;0.00;;;;;;;;;;5023147;28;20037;-57
2023/09/28 04:26:21;;;;;;;0.00;0.00;;;;;;;;;;5013438;28;20131;-56
2023/09/28 04:28:47;;;;;;;0.00;0.00;;;;;;;;;;5018180;28;20037;-56
2023/09/28 04:31:13;;;;;;;0.00;0.00;;;;;;;;;;5022531;28;20037;-57
2023/09/28 04:33:39;;;;;;;0.00;0.00;;;;;;;;;;4990312;28;20553;-57
2023/09/28 04:36:07;;;;;;;0.00;0.00;;;;;;;;;;4990213;28;20921;-55
2023/09/28 04:38:33;;;;;;;0.00;0.00;;;;;;;;;;4987244;28;20038;-55
2023/09/28 04:41:02;;;;;;;0.00;0.00;;;;;;;;;;5008218;28;20034;-56
2023/09/28 04:43:29;;;;;;;0.00;0.00;;;;;;;;;;5022210;28;20524;-56
2023/09/28 04:45:55;;;;;;;0.00;0.00;;;;;;;;;;5024453;28;20502;-56
2023/09/28 04:48:21;;;;;;;0.00;0.00;;;;;;;;;;5017700;28;20099;-57
2023/09/28 04:50:47;;;;;;;0.00;0.00;;;;;;;;;;5018349;28;20107;-56
2023/09/28 04:53:13;;;;;;;0.00;0.00;;;;;;;;;;5011226;28;20591;-55
2023/09/28 04:55:39;;;;;;;0.00;0.00;;;;;;;;;;5014684;28;20038;-55
2023/09/28 04:58:05;;;;;;;0.00;0.00;;;;;;;;;;5012296;28;20029;-56
2023/09/28 05:00:32;;;;;;;0.00;0.00;;;;;;;;;;5011583;28;20034;-57
2023/09/28 05:03:01;;;;;;;0.00;0.00;;;;;;;;;;5012979;28;20209;-56
2023/09/28 05:05:27;;;;;;;0.00;0.00;;;;;;;;;;5007445;28;20038;-56
2023/09/28 05:07:53;;;;;;;0.00;0.00;;;;;;;;;;5007166;28;20041;-56
2023/09/28 05:10:19;;;;;;;0.00;0.00;;;;;;;;;;5020589;28;20389;-57
2023/09/28 05:12:45;;;;;;;0.00;0.00;;;;;;;;;;5024678;28;20049;-57
2023/09/28 05:15:13;;;;;;;0.00;0.00;;;;;;;;;;5020849;28;20048;-55
2023/09/28 05:17:39;;;;;;;0.00;0.00;;;;;;;;;;5022730;28;20046;-57
2023/09/28 05:20:05;;;;;;;0.00;0.00;;;;;;;;;;5017328;28;20048;-55
2023/09/28 05:22:31;;;;;;;0.00;0.00;;;;;;;;;;5012131;28;20029;-57
2023/09/28 05:24:57;;;;;;;0.00;0.00;;;;;;;;;;5023267;28;20110;-55
2023/09/28 05:27:23;;;;;;;0.00;0.00;;;;;;;;;;5016792;28;20034;-56
2023/09/28 05:29:50;;;;;;;0.00;0.00;;;;;;;;;;5005336;28;20042;-55
2023/09/28 05:32:16;;;;;;;0.00;0.00;;;;;;;;;;4994970;28;20042;-57
2023/09/28 05:34:42;;;;;;;0.00;0.00;;;;;;;;;;5018825;28;20113;-57
2023/09/28 05:37:07;;;;;;;0.00;0.00;;;;;;;;;;5028530;28;20748;-57
2023/09/28 05:39:34;;;;;;;0.00;0.00;;;;;;;;;;5005308;28;20096;-55
2023/09/28 05:42:01;;;;;;;0.00;0.00;;;;;;;;;;5016734;28;20029;-57
2023/09/28 05:44:27;;;;;;;0.00;0.00;;;;;;;;;;5002275;28;20091;-57
2023/09/28 05:46:53;;;;;;;0.00;0.00;;;;;;;;;;5019824;28;20037;-55
2023/09/28 05:49:19;;;;;;;0.00;0.00;;;;;;;;;;5021447;28;20041;-57
2023/09/28 05:51:46;;;;;;;0.00;0.00;;;;;;;;;;4997881;28;20042;-56
2023/09/28 05:54:12;;;;;;;0.00;0.00;;;;;;;;;;4998170;28;20046;-57
2023/09/28 05:56:38;;;;;;;0.00;0.00;;;;;;;;;;5006394;28;20502;-56
2023/09/28 05:59:04;;;;;;;0.00;0.00;;;;;;;;;;5004775;28;20120;-57
2023/09/28 06:01:30;;;;;;;0.00;0.00;;;;;;;;;;5007249;28;20072;-55
2023/09/28 06:03:56;;;;;;;0.00;0.00;;;;;;;;;;5006655;28;20030;-56
2023/09/28 06:06:23;;;;;;;0.00;0.00;;;;;;;;;;5015761;28;20449;-57
2023/09/28 06:08:50;;;;;;;0.00;0.00;;;;;;;;;;5020877;28;20045;-55
2023/09/28 06:11:17;;;;;;;0.00;0.00;;;;;;;;;;4995355;28;20568;-56
2023/09/28 06:13:43;;;;;;;0.00;0.00;;;;;;;;;;5005778;28;20030;-54
2023/09/28 06:16:11;;;;;;;0.00;0.00;;;;;;;;;;5001108;28;20034;-56
2023/09/28 06:18:37;;;;;;;0.00;0.00;;;;;;;;;;5003074;28;20156;-55
2023/09/28 06:21:03;;;;;;;0.00;0.00;;;;;;;;;;5002920;28;20179;-55
2023/09/28 06:23:30;;;;;;;0.00;0.00;;;;;;;;;;5010009;28;20045;-54
2023/09/28 06:25:56;;;;;;;0.00;0.00;;;;;;;;;;5026673;28;20060;-55
2023/09/28 06:28:24;;;;;;;0.00;0.00;;;;;;;;;;5026058;28;20392;-56
2023/09/28 06:30:51;;;;;;;0.00;0.00;;;;;;;;;;5018906;28;20095;-54
2023/09/28 06:33:17;;;;;;;0.00;0.00;;;;;;;;;;5010153;28;20076;-55
2023/09/28 06:35:43;;;;;;;0.00;0.00;;;;;;;;;;5015341;28;20025;-55
2023/09/28 06:38:10;;;;;;;0.00;0.00;;;;;;;;;;5011687;28;20052;-56
2023/09/28 06:40:36;;;;;;;0.00;0.00;;;;;;;;;;5008607;28;20072;-55
2023/09/28 06:43:02;;;;;;;0.00;0.00;;;;;;;;;;5022579;28;20064;-55
2023/09/28 06:45:28;;;;;;;0.00;0.00;;;;;;;;;;5022862;28;20037;-54
2023/09/28 06:47:54;;;;;;;0.00;0.00;;;;;;;;;;5023258;28;20389;-55
2023/09/28 06:50:21;;;;;;;0.00;0.00;;;;;;;;;;5025797;28;20189;-55
2023/09/28 06:52:47;;;;;;;0.00;0.00;;;;;;;;;;5023569;28;20099;-54
2023/09/28 06:55:13;;;;;;;0.00;0.00;;;;;;;;;;5022287;28;20048;-54
2023/09/28 06:57:39;;;;;;;0.00;0.00;;;;;;;;;;5026023;28;20513;-55
2023/09/28 07:00:09;;;;;;;0.00;0.00;;;;;;;;;;5026323;28;20080;-56
2023/09/28 07:02:36;;;;;;;0.00;0.00;;;;;;;;;;5021674;28;20045;-55
2023/09/28 07:05:03;;;;;;;0.00;0.00;;;;;;;;;;5024614;28;20068;-54
2023/09/28 07:07:30;;;;;;;0.00;0.00;;;;;;;;;;5019763;28;20440;-54
2023/09/28 07:09:56;;;;;;;0.00;0.00;;;;;;;;;;5003828;28;20064;-54
2023/09/28 07:12:22;;;;;;;0.00;0.00;;;;;;;;;;4993820;28;20130;-55
2023/09/28 07:14:48;;;;;;;0.00;0.00;;;;;;;;;;4993282;28;20037;-54
2023/09/28 07:17:14;;;;;;;0.00;0.00;;;;;;;;;;4994695;28;20038;-55
2023/09/28 07:19:42;;;;;;;0.00;0.00;;;;;;;;;;4999625;28;20039;-53
2023/09/28 07:22:08;;;;;;;0.00;0.00;;;;;;;;;;4994062;28;20104;-55
2023/09/28 07:24:34;;;;;;;0.00;0.00;;;;;;;;;;5006275;28;20041;-56
2023/09/28 07:27:00;;;;;;;0.00;0.00;;;;;;;;;;4995457;28;20694;-56
2023/09/28 07:29:27;;;;;;;0.00;0.00;;;;;;;;;;4994285;28;20303;-55
2023/09/28 07:31:53;;;;;;;0.00;0.00;;;;;;;;;;4996756;28;20417;-56
2023/09/28 07:34:19;;;;;;;0.00;0.00;;;;;;;;;;5010830;28;20037;-54
2023/09/28 07:36:45;;;;;;;0.00;0.00;;;;;;;;;;4995128;28;20143;-55
2023/09/28 07:39:11;;;;;;;0.00;0.00;;;;;;;;;;4987927;28;20414;-53
2023/09/28 07:41:39;;;;;;;0.00;0.00;;;;;;;;;;5002519;28;20708;-55
2023/09/28 07:44:05;;;;;;;0.00;0.00;;;;;;;;;;4992819;28;20042;-55
2023/09/28 07:46:31;;;;;;;0.00;0.00;;;;;;;;;;4989013;28;20052;-56
2023/09/28 07:48:57;;;;;;;0.00;0.00;;;;;;;;;;4990636;28;20121;-54
2023/09/28 07:51:23;;;;;;;0.00;0.00;;;;;;;;;;4989640;28;20045;-53
2023/09/28 07:53:49;;;;;;;0.00;0.00;;;;;;;;;;4992831;28;20038;-54
2023/09/28 07:56:15;;;;;;;0.00;0.00;;;;;;;;;;4990102;28;20742;-54
2023/09/28 07:58:41;;;;;;;0.00;0.00;;;;;;;;;;4991951;28;20071;-54
2023/09/28 08:01:07;;;;;;;0.00;0.00;;;;;;;;;;4994583;28;20176;-53
2023/09/28 08:03:34;;;;;;;0.00;0.00;;;;;;;;;;4991863;28;20256;-54
2023/09/28 08:06:00;;;;;;;0.00;0.00;;;;;;;;;;4992288;28;20112;-53
2023/09/28 08:08:27;;;;;;;0.00;0.00;;;;;;;;;;4989616;28;20497;-54
2023/09/28 08:10:53;;;;;;;0.00;0.00;;;;;;;;;;4988835;28;20439;-55
2023/09/28 08:13:19;;;;;;;0.00;0.00;;;;;;;;;;4992543;28;20034;-55
2023/09/28 08:15:46;;;;;;;0.00;0.00;;;;;;;;;;4991956;28;20328;-58
2023/09/28 08:18:12;;;;;;;0.00;0.00;;;;;;;;;;4992347;28;20036;-54
2023/09/28 08:20:38;;;;;;;0.00;0.00;;;;;;;;;;4990818;28;20042;-55
2023/09/28 08:23:04;;;;;;;0.00;0.00;;;;;;;;;;4992421;28;20037;-55
2023/09/28 08:25:30;;;;;;;0.00;0.00;;;;;;;;;;4992793;28;20038;-54
2023/09/28 08:27:57;;;;;;;0.00;0.00;;;;;;;;;;4992156;28;20030;-54
2023/09/28 08:30:23;;;;;;;0.00;0.00;;;;;;;;;;4990838;28;20149;-57
2023/09/28 08:32:49;;;;;;;0.00;0.00;;;;;;;;;;4991478;28;21123;-55
2023/09/28 08:35:15;;;;;;;0.00;0.00;;;;;;;;;;4989669;28;20034;-56
2023/09/28 08:37:41;;;;;;;0.00;0.00;;;;;;;;;;4991702;28;20038;-56
2023/09/28 08:40:08;;;;;;;0.00;0.00;;;;;;;;;;4990511;28;20037;-54
2023/09/28 08:42:35;;;;;;;0.00;0.00;;;;;;;;;;4985379;28;20545;-55
2023/09/28 08:45:02;;;;;;;0.00;0.00;;;;;;;;;;4993273;28;20413;-53
2023/09/28 08:47:34;;;;;;;0.00;0.00;;;;;;;;;;5002076;28;20447;-55
2023/09/28 08:50:00;;;;;;;0.00;0.00;;;;;;;;;;5001399;28;20049;-56
2023/09/28 08:52:28;;;;;;;0.00;0.00;;;;;;;;;;5000021;28;20037;-54
2023/09/28 08:54:54;;;;;;;0.00;0.00;;;;;;;;;;4999024;28;20112;-55
2023/09/28 08:57:20;;;;;;;0.00;0.00;;;;;;;;;;5002448;28;20092;-54
2023/09/28 08:59:48;;;;;;;0.00;0.00;;;;;;;;;;4998709;28;20041;-55
2023/09/28 09:02:15;;;;;;;0.00;0.00;;;;;;;;;;5003571;28;20146;-56
2023/09/28 09:04:42;;;;;;;0.00;0.00;;;;;;;;;;5003038;28;20049;-54
2023/09/28 09:07:08;;;;;;;0.00;0.00;;;;;;;;;;4994766;28;20042;-55
2023/09/28 09:09:37;;;;;;;0.00;0.00;;;;;;;;;;4992169;28;20625;-53
2023/09/28 09:12:09;;;;;;;0.00;0.00;;;;;;;;;;5008464;28;20045;-56
2023/09/28 09:14:35;;;;;;;0.00;0.00;;;;;;;;;;5022268;28;20044;-55
2023/09/28 09:17:02;;;;;;;0.00;0.00;;;;;;;;;;5010314;28;20038;-56
2023/09/28 09:19:32;;;;;;;0.00;0.00;;;;;;;;;;5005399;28;20042;-55
2023/09/28 09:21:58;;;;;;;0.00;0.00;;;;;;;;;;5001210;28;20508;-55
2023/09/28 09:24:24;;;;;;;0.03;0.00;;;;;;;;;;5001071;28;20037;-55
2023/09/28 09:26:56;;;;;;;11.10;3.92;;;;;;;;;;5002443;28;20132;-55
2023/09/28 09:29:22;;;;;;;12.75;4.75;;;;;;;;;;5004146;28;20188;-55
2023/09/28 09:31:50;;;;;;;16.67;5.03;;;;;;;;;;5007776;28;20046;-55
2023/09/28 09:34:17;;;;;;;18.95;5.30;;;;;;;;;;5005060;28;20401;-56
2023/09/28 09:36:51;;;;;;;13.63;5.15;;;;;;;;;;4998610;28;20097;-55
2023/09/28 09:39:24;;;;;;;13.93;4.25;;;;;;;;;;4993070;28;20540;-54
2023/09/28 09:41:51;;;;;;;14.63;4.80;;;;;;;;;;4994774;28;20638;-57
2023/09/28 09:44:18;;;;;;;12.13;4.20;;;;;;;;;;4994896;28;20045;-54
2023/09/28 09:46:44;;;;;;;16.33;4.20;;;;;;;;;;4994820;28;20096;-55
2023/09/28 09:49:10;;;;;;;14.68;4.13;;;;;;;;;;4993169;28;20386;-55
2023/09/28 09:51:38;;;;;;;10.43;3.60;;;;;;;;;;4992880;28;20050;-56
2023/09/28 09:54:05;;;;;;;13.82;3.65;;;;;;;;;;4991483;28;20694;-56
2023/09/28 09:56:33;;;;;;;19.00;4.57;;;;;;;;;;4992922;28;20041;-56
2023/09/28 09:59:01;;;;;;;15.10;3.67;;;;;;;;;;4993826;28;20508;-56
2023/09/28 10:01:28;;;;;;;13.55;4.00;;;;;;;;;;4994791;28;20050;-55
2023/09/28 10:03:56;;;;;;;13.85;4.18;;;;;;;;;;4996660;28;20091;-53
2023/09/28 10:06:23;;;;;;;14.60;4.13;;;;;;;;;;4996141;28;20049;-55
2023/09/28 10:08:49;;;;;;;13.68;4.05;;;;;;;;;;4992400;28;20069;-56
2023/09/28 10:11:16;;;;;;;11.27;3.85;;;;;;;;;;4996258;28;20044;-55
2023/09/28 10:13:42;;;;;;;16.38;4.18;;;;;;;;;;5013213;28;20116;-56
2023/09/28 10:16:11;;;;;;;12.82;3.97;;;;;;;;;;5022094;28;20120;-56
2023/09/28 10:18:38;;;;;;;19.30;4.78;;;;;;;;;;5030432;28;20658;-56
2023/09/28 10:21:05;;;;;;;16.27;4.03;;;;;;;;;;5024514;28;20157;-55
2023/09/28 10:23:31;;;;;;;11.90;4.10;;;;;;;;;;5025469;28;20053;-54
2023/09/28 10:25:58;;;;;;;17.80;4.53;;;;;;;;;;5023121;28;20045;-56
2023/09/28 10:28:24;;;;;;;15.48;4.47;;;;;;;;;;5030876;28;20420;-56
2023/09/28 10:31:03;;;;;;;15.73;4.55;;;;;;;;;;5023547;28;20120;-56
2023/09/28 10:33:29;;;;;;;20.35;5.60;;;;;;;;;;5008530;28;20366;-56
2023/09/28 10:36:11;;;;;;;16.05;4.95;;;;;;;;;;4998817;28;20034;-55
2023/09/28 10:38:37;;;;;;;16.88;4.28;;;;;;;;;;5026023;28;20053;-55
2023/09/28 10:41:05;;;;;;;16.80;3.70;;;;;;;;;;5026370;28;20076;-55
2023/09/28 10:43:39;;;;;;;17.95;4.13;;;;;;;;;;5028088;28;20045;-55
2023/09/28 10:46:05;;;;;;;13.18;3.67;;;;;;;;;;5014054;28;20087;-55
2023/09/28 10:48:33;;;;;;;14.82;3.90;;;;;;;;;;5031462;28;20064;-55
2023/09/28 10:51:01;;;;;;;12.07;3.63;;;;;;;;;;5011843;28;20041;-55
2023/09/28 10:53:27;;;;;;;14.77;3.90;;;;;;;;;;5018312;28;20095;-55
2023/09/28 10:55:53;;;;;;;11.05;3.65;;;;;;;;;;5025295;28;20171;-54
2023/09/28 10:58:19;;;;;;;19.02;4.35;;;;;;;;;;5022846;28;20053;-54
2023/09/28 11:00:45;;;;;;;10.38;3.63;;;;;;;;;;5025529;28;20501;-55
2023/09/28 11:03:11;;;;;;;13.25;3.42;;;;;;;;;;5017808;28;20044;-54
2023/09/28 11:05:38;;;;;;;10.55;3.50;;;;;;;;;;5011993;28;20324;-54
2023/09/28 11:08:04;;;;;;;15.70;4.07;;;;;;;;;;5012966;28;20684;-55
2023/09/28 11:10:30;;;;;;;12.60;3.92;;;;;;;;;;5014788;28;20099;-54
2023/09/28 11:12:57;;;;;;;13.30;3.88;;;;;;;;;;5013586;28;20859;-55
2023/09/28 11:15:23;;;;;;;15.85;4.38;;;;;;;;;;5011418;28;20047;-54
2023/09/28 11:17:50;;;;;;;18.23;4.40;;;;;;;;;;5016608;28;20138;-55
2023/09/28 11:20:16;;;;;;;15.43;3.95;;;;;;;;;;5014611;28;20554;-54
2023/09/28 11:22:42;;;;;;;12.77;4.10;;;;;;;;;;5020818;28;22059;-54
2023/09/28 11:25:09;;;;;;;10.27;3.25;;;;;;;;;;5013561;28;20086;-54
2023/09/28 11:27:35;;;;;;;15.52;3.58;;;;;;;;;;5019438;28;20041;-55
2023/09/28 11:30:03;;;;;;;14.23;4.45;;;;;;;;;;5012743;28;20041;-56
2023/09/28 11:32:46;;;;;;;13.43;3.72;;;;;;;;;;5014821;28;20052;-54
2023/09/28 11:35:13;;;;;;;12.95;3.42;;;;;;;;;;5011473;28;20738;-55
2023/09/28 11:37:40;;;;;;;12.18;4.00;;;;;;;;;;5011077;28;20052;-55
2023/09/28 11:40:10;;;;;;;15.65;3.97;;;;;;;;;;5014411;28;20492;-55
2023/09/28 11:42:39;;;;;;;12.05;3.47;;;;;;;;;;5016777;28;20501;-56
2023/09/28 11:45:06;;;;;;;14.70;3.80;;;;;;;;;;5011696;28;20128;-56
2023/09/28 11:47:32;;;;;;;14.80;4.00;;;;;;;;;;5016780;28;21008;-54
2023/09/28 11:49:58;;;;;;;10.35;3.22;;;;;;;;;;5003850;28;20172;-56
2023/09/28 11:52:24;;;;;;;13.90;3.30;;;;;;;;;;5003713;28;20053;-55
2023/09/28 11:54:50;;;;;;;11.75;3.20;;;;;;;;;;5020121;28;20046;-56
2023/09/28 11:57:18;;;;;;;8.60;2.90;;;;;;;;;;5022309;28;20045;-55
2023/09/28 11:59:45;;;;;;;12.38;3.30;;;;;;;;;;5021506;28;20193;-55
2023/09/28 12:02:11;;;;;;;11.07;2.95;;;;;;;;;;5021878;28;20116;-54
2023/09/28 12:04:38;;;;;;;12.63;3.20;;;;;;;;;;5023495;28;20021;-54
2023/09/28 12:07:06;;;;;;;17.40;3.58;;;;;;;;;;5020822;28;20095;-55
2023/09/28 12:09:32;;;;;;;14.10;3.35;;;;;;;;;;5021097;28;20120;-54
2023/09/28 12:11:58;;;;;;;14.15;4.05;;;;;;;;;;5021212;28;20128;-55
2023/09/28 12:14:24;;;;;;;11.32;3.38;;;;;;;;;;5009390;28;20680;-54
2023/09/28 12:16:52;;;;;;;16.60;3.40;;;;;;;;;;5010991;28;20488;-54
2023/09/28 12:19:19;;;;;;;19.05;3.85;;;;;;;;;;5012308;28;20147;-53
2023/09/28 12:21:48;;;;;;;13.15;3.83;;;;;;;;;;5013388;28;20037;-55
2023/09/28 12:24:15;;;;;;;14.23;3.85;;;;;;;;;;5014495;28;20045;-55
2023/09/28 12:26:41;;;;;;;13.43;3.78;;;;;;;;;;5014891;28;20493;-55
2023/09/28 12:29:07;;;;;;;11.35;3.00;;;;;;;;;;5011819;28;20453;-54
2023/09/28 12:31:35;;;;;;;14.90;3.58;;;;;;;;;;5012881;28;20101;-56
2023/09/28 12:34:01;;;;;;;14.05;3.17;;;;;;;;;;5011357;28;20044;-56
2023/09/28 12:36:27;;;;;;;13.05;3.30;;;;;;;;;;5012366;28;20045;-55
2023/09/28 12:38:53;;;;;;;18.92;4.15;;;;;;;;;;5012694;28;20325;-54
2023/09/28 12:41:19;;;;;;;11.20;3.58;;;;;;;;;;5012807;28;20875;-56
2023/09/28 12:43:45;;;;;;;15.65;3.30;;;;;;;;;;5012446;28;20103;-53
2023/09/28 12:46:11;;;;;;;16.00;3.42;;;;;;;;;;5010970;28;20117;-55
2023/09/28 12:48:37;;;;;;;14.30;3.70;;;;;;;;;;5011912;28;20045;-54
2023/09/28 12:51:04;;;;;;;12.25;3.80;;;;;;;;;;5014400;28;20064;-55
2023/09/28 12:53:33;;;;;;;14.13;3.17;;;;;;;;;;5014343;28;20041;-56
2023/09/28 12:55:59;;;;;;;11.27;3.85;;;;;;;;;;5009767;28;20120;-54
2023/09/28 12:58:25;;;;;;;14.55;3.45;;;;;;;;;;5004435;28;20060;-55
2023/09/28 13:00:51;;;;;;;11.88;3.60;;;;;;;;;;5013819;28;20108;-55
2023/09/28 13:03:18;;;;;;;14.45;3.63;;;;;;;;;;5025406;28;20125;-55
2023/09/28 13:05:44;;;;;;;17.08;3.85;;;;;;;;;;5022632;28;20037;-55
2023/09/28 13:08:15;;;;;;;13.95;3.55;;;;;;;;;;5019952;28;20036;-55
2023/09/28 13:10:42;;;;;;;14.25;3.60;;;;;;;;;;5018074;28;20564;-55
2023/09/28 13:13:08;;;;;;;16.35;4.38;;;;;;;;;;5019258;28;20140;-54
2023/09/28 13:15:34;;;;;;;23.73;4.90;;;;;;;;;;5010879;28;20658;-54
2023/09/28 13:18:01;;;;;;;18.00;3.90;;;;;;;;;;5008919;28;20164;-56
2023/09/28 13:20:28;;;;;;;16.67;3.97;;;;;;;;;;5011166;28;20429;-56
2023/09/28 13:22:57;;;;;;;17.20;3.88;;;;;;;;;;5021473;28;20104;-55
2023/09/28 13:25:26;;;;;;;12.18;4.20;;;;;;;;;;5019170;28;20092;-55
2023/09/28 13:27:53;;;;;;;14.10;3.47;;;;;;;;;;5023760;28;20039;-56
2023/09/28 13:30:22;;;;;;;18.48;4.07;;;;;;;;;;5013004;28;20044;-53
2023/09/28 13:32:50;;;;;;;17.05;3.85;;;;;;;;;;5004388;28;20038;-56
2023/09/28 13:35:16;;;;;;;14.45;4.10;;;;;;;;;;5010378;28;20037;-56
2023/09/28 13:37:42;;;;;;;18.58;3.60;;;;;;;;;;5012044;28;20052;-55
2023/09/28 13:40:23;;;;;;;14.32;3.70;;;;;;;;;;5011128;28;20037;-56
2023/09/28 13:42:50;;;;;;;11.88;3.58;;;;;;;;;;5009343;28;20038;-56
2023/09/28 13:45:19;;;;;;;21.38;4.30;;;;;;;;;;5014826;28;20037;-56
2023/09/28 13:47:47;;;;;;;12.80;3.75;;;;;;;;;;5013934;28;20098;-56
2023/09/28 13:50:16;;;;;;;13.80;3.70;;;;;;;;;;5018591;28;20556;-56
2023/09/28 13:52:44;;;;;;;13.20;3.78;;;;;;;;;;5016686;28;20045;-55
2023/09/28 13:55:14;;;;;;;15.27;3.67;;;;;;;;;;5017462;28;20047;-56
2023/09/28 13:57:42;;;;;;;15.82;3.85;;;;;;;;;;4998317;28;20030;-55
2023/09/28 14:00:14;;;;;;;14.15;3.40;;;;;;;;;;4996206;28;20527;-54
2023/09/28 14:02:41;;;;;;;11.93;3.85;;;;;;;;;;4984384;28;20247;-54
2023/09/28 14:05:08;;;;;;;13.32;3.60;;;;;;;;;;5000843;28;20049;-55
2023/09/28 14:07:34;;;;;;;12.10;3.85;;;;;;;;;;5006088;28;20436;-55
2023/09/28 14:10:00;;;;;;;16.73;3.75;;;;;;;;;;5008364;28;20030;-54
2023/09/28 14:12:26;;;;;;;10.52;3.47;;;;;;;;;;5009182;28;20105;-56
2023/09/28 14:14:52;;;;;;;19.48;4.22;;;;;;;;;;5005015;28;20040;-55
2023/09/28 14:17:18;;;;;;;13.93;4.00;;;;;;;;;;5004129;28;20034;-54
2023/09/28 14:19:44;;;;;;;15.57;4.15;;;;;;;;;;5004864;28;20041;-55
2023/09/28 14:22:10;;;;;;;13.52;3.90;;;;;;;;;;5005216;28;20040;-54
2023/09/28 14:24:37;;;;;;;13.88;4.25;;;;;;;;;;5011655;28;20073;-56
2023/09/28 14:27:03;;;;;;;13.88;3.72;;;;;;;;;;5004431;28;20729;-54
2023/09/28 14:29:31;;;;;;;16.98;4.13;;;;;;;;;;5010468;28;20067;-56
2023/09/28 14:31:56;;;;;;;17.92;4.32;;;;;;;;;;5004047;28;20049;-55
2023/09/28 14:34:22;;;;;;;14.38;4.03;;;;;;;;;;5002117;28;20041;-54
2023/09/28 14:36:48;;;;;;;17.33;4.90;;;;;;;;;;5004640;28;20037;-56